createdAt,value
2022-12-03T00:00:51.098Z,94384.22
2022-12-03T00:01:47.703Z,94400.84
2022-12-03T00:02:44.537Z,94374.31
2022-12-03T00:03:41.477Z,94402.13
2022-12-03T00:04:38.197Z,94411.53
2022-12-03T00:05:34.906Z,94388.44
2022-12-03T00:06:34.539Z,94404.97
2022-12-03T00:07:31.606Z,94401.84
2022-12-03T00:08:28.368Z,94401.63
2022-12-03T00:09:24.979Z,94403.59
2022-12-03T00:10:21.609Z,94403.72
2022-12-03T00:11:18.170Z,94361.78
2022-12-03T00:12:14.828Z,94410.75
2022-12-03T00:13:11.473Z,94398.13
2022-12-03T00:14:08.072Z,94407.22
2022-12-03T00:15:06.238Z,94402.03
2022-12-03T00:16:02.886Z,94404.38
2022-12-03T00:17:00.350Z,94407.50
2022-12-03T00:17:56.911Z,94394.28
2022-12-03T00:18:53.503Z,94414.66
2022-12-03T00:19:50.099Z,94410.53
2022-12-03T00:20:46.692Z,94409.88
2022-12-03T00:21:43.305Z,94394.59
2022-12-03T00:22:39.864Z,94415.19
2022-12-03T00:23:41.749Z,94414.38
2022-12-03T00:24:38.892Z,94422.78
2022-12-03T00:25:35.541Z,94417.50
2022-12-03T00:26:32.129Z,94406.25
2022-12-03T00:27:28.692Z,94414.38
2022-12-03T00:28:25.252Z,94386.97
2022-12-03T00:29:21.862Z,94425.16
2022-12-03T00:30:18.762Z,94420.91
2022-12-03T00:31:15.385Z,94408.13
2022-12-03T00:32:12.256Z,94423.56
2022-12-03T00:33:08.951Z,94421.81
2022-12-03T00:34:05.650Z,94429.84
2022-12-03T00:35:02.550Z,94410.06
2022-12-03T00:35:59.203Z,94430.16
2022-12-03T00:36:55.764Z,94429.09
2022-12-03T00:37:52.394Z,94424.75
2022-12-03T00:38:48.980Z,94441.41
2022-12-03T00:39:45.556Z,94436.53
2022-12-03T00:40:42.230Z,94427.69
2022-12-03T00:41:38.811Z,94438.19
2022-12-03T00:42:35.450Z,94440.81
2022-12-03T00:43:32.027Z,94436.59
2022-12-03T00:44:28.715Z,94441.31
2022-12-03T00:45:25.271Z,94402.44
2022-12-03T00:46:22.017Z,94421.06
2022-12-03T00:47:18.682Z,94431.31
2022-12-03T00:48:15.272Z,94439.56
2022-12-03T00:49:12.120Z,94441.50
2022-12-03T00:50:09.159Z,94440.31
2022-12-03T00:51:05.917Z,94435.34
2022-12-03T00:52:02.622Z,94432.00
2022-12-03T00:52:59.210Z,94433.78
2022-12-03T00:53:55.829Z,94423.09
2022-12-03T00:54:52.700Z,94432.41
2022-12-03T00:55:50.765Z,94432.69
2022-12-03T00:56:47.348Z,94433.38
2022-12-03T00:57:44.002Z,94440.13
2022-12-03T00:58:40.619Z,94437.19
2022-12-03T00:59:37.274Z,94444.63
2022-12-03T01:00:34.217Z,94446.31
2022-12-03T01:01:30.852Z,94436.63
2022-12-03T01:02:27.650Z,94437.88
2022-12-03T01:03:24.281Z,94445.72
2022-12-03T01:04:21.023Z,94447.47
2022-12-03T01:05:19.041Z,94419.44
2022-12-03T01:06:15.715Z,94440.53
2022-12-03T01:07:12.283Z,94445.13
2022-12-03T01:08:08.931Z,94395.38
2022-12-03T01:09:05.658Z,94393.00
2022-12-03T01:10:04.343Z,94450.53
2022-12-03T01:11:01.045Z,94435.16
2022-12-03T01:11:57.713Z,94451.97
2022-12-03T01:12:54.320Z,94453.84
2022-12-03T01:13:50.911Z,94441.19
2022-12-03T01:14:47.712Z,94454.13
2022-12-03T01:15:44.410Z,94460.22
2022-12-03T01:16:41.870Z,94452.88
2022-12-03T01:17:38.859Z,94448.16
2022-12-03T01:18:35.447Z,94455.84
2022-12-03T01:19:32.166Z,94456.22
2022-12-03T01:20:28.875Z,94450.16
2022-12-03T01:21:25.442Z,94461.97
2022-12-03T01:22:22.070Z,94464.84
2022-12-03T01:23:18.654Z,94452.78
2022-12-03T01:24:15.779Z,94409.78
2022-12-03T01:25:12.413Z,94462.88
2022-12-03T01:26:09.076Z,94459.94
2022-12-03T01:27:05.711Z,94440.44
2022-12-03T01:28:02.306Z,94451.78
2022-12-03T01:28:59.694Z,94466.09
2022-12-03T01:29:56.320Z,94469.75
2022-12-03T01:31:11.714Z,94413.22
2022-12-03T01:32:21.935Z,94472.66
2022-12-03T01:33:18.605Z,94447.88
2022-12-03T01:34:15.328Z,94467.88
2022-12-03T01:35:11.918Z,94451.59
2022-12-03T01:36:08.763Z,94477.84
2022-12-03T01:37:05.391Z,94470.59
2022-12-03T01:38:01.983Z,94478.66
2022-12-03T01:38:58.626Z,94473.34
2022-12-03T01:39:55.324Z,94457.78
2022-12-03T01:40:51.952Z,94465.91
2022-12-03T01:41:51.675Z,94432.66
2022-12-03T01:42:48.281Z,94471.00
2022-12-03T01:43:46.037Z,94478.44
2022-12-03T01:44:42.983Z,94474.34
2022-12-03T01:45:39.570Z,94472.09
2022-12-03T01:46:41.304Z,94461.19
2022-12-03T01:47:38.223Z,94471.09
2022-12-03T01:48:37.812Z,94454.94
2022-12-03T01:49:39.771Z,94472.00
2022-12-03T01:50:36.874Z,94476.19
2022-12-03T01:51:33.820Z,94446.31
2022-12-03T01:52:34.320Z,94458.84
2022-12-03T01:53:30.923Z,94468.34
2022-12-03T01:54:37.109Z,94470.31
2022-12-03T01:55:34.316Z,94467.28
2022-12-03T01:56:31.012Z,94462.88
2022-12-03T01:57:32.895Z,94461.88
2022-12-03T01:58:29.947Z,94467.38
2022-12-03T01:59:37.401Z,94451.97
2022-12-03T02:00:34.147Z,94459.91
2022-12-03T02:01:30.855Z,94463.16
2022-12-03T02:02:29.576Z,94457.69
2022-12-03T02:03:26.649Z,94411.31
2022-12-03T02:04:24.117Z,94449.63
2022-12-03T02:05:23.815Z,94411.25
2022-12-03T02:06:22.930Z,94460.03
2022-12-03T02:07:32.151Z,94465.69
2022-12-03T02:08:32.682Z,94457.75
2022-12-03T02:09:29.308Z,94453.75
2022-12-03T02:10:32.618Z,94467.38
2022-12-03T02:11:34.131Z,94462.38
2022-12-03T02:12:33.416Z,94465.69
2022-12-03T02:13:30.281Z,94416.13
2022-12-03T02:14:26.905Z,94465.53
2022-12-03T02:15:23.703Z,94460.25
2022-12-03T02:16:20.686Z,94468.66
2022-12-03T02:17:17.772Z,94456.41
2022-12-03T02:18:14.402Z,94452.78
2022-12-03T02:19:24.082Z,94402.53
2022-12-03T02:20:20.887Z,94465.44
2022-12-03T02:21:23.201Z,94454.34
2022-12-03T02:22:25.624Z,94460.81
2022-12-03T02:23:33.924Z,94462.28
2022-12-03T02:25:00.237Z,94458.94
2022-12-03T02:25:57.008Z,94460.31
2022-12-03T02:26:53.622Z,94462.47
2022-12-03T02:27:50.921Z,94463.56
2022-12-03T02:28:47.546Z,94432.00
2022-12-03T02:29:44.359Z,94459.84
2022-12-03T02:30:41.186Z,94461.50
2022-12-03T02:31:37.881Z,94466.09
2022-12-03T02:32:34.626Z,94462.56
2022-12-03T02:33:32.267Z,94457.34
2022-12-03T02:34:43.434Z,94453.94
2022-12-03T02:35:40.319Z,94454.16
2022-12-03T02:36:38.535Z,94407.72
2022-12-03T02:37:37.080Z,94455.31
2022-12-03T02:38:35.556Z,94450.59
2022-12-03T02:39:35.453Z,94458.66
2022-12-03T02:40:33.886Z,94458.25
2022-12-03T02:41:49.167Z,94440.81
2022-12-03T02:42:46.385Z,94423.88
2022-12-03T02:43:43.003Z,94447.00
2022-12-03T02:44:39.785Z,94447.97
2022-12-03T02:45:39.799Z,94447.47
2022-12-03T02:46:36.697Z,94452.47
2022-12-03T02:47:36.963Z,94451.19
2022-12-03T02:48:37.342Z,94454.06
2022-12-03T02:49:33.948Z,94457.09
2022-12-03T02:50:34.098Z,94450.84
2022-12-03T02:51:30.773Z,94372.97
2022-12-03T02:52:27.657Z,94446.31
2022-12-03T02:53:27.744Z,94454.56
2022-12-03T02:54:24.511Z,94429.94
2022-12-03T02:55:22.104Z,94444.56
2022-12-03T02:56:23.466Z,94438.97
2022-12-03T02:57:20.626Z,94444.84
2022-12-03T02:58:18.161Z,94450.84
2022-12-03T02:59:15.098Z,94448.47
2022-12-03T03:00:12.462Z,94456.09
2022-12-03T03:01:10.332Z,94463.75
2022-12-03T03:02:07.122Z,94456.59
2022-12-03T03:03:06.318Z,94427.50
2022-12-03T03:04:04.639Z,94461.41
2022-12-03T03:05:01.499Z,94459.72
2022-12-03T03:06:01.235Z,94462.78
2022-12-03T03:06:57.846Z,94464.53
2022-12-03T03:07:54.745Z,94453.06
2022-12-03T03:08:51.798Z,94452.88
2022-12-03T03:09:48.530Z,94457.88
2022-12-03T03:10:46.970Z,94456.22
2022-12-03T03:11:43.626Z,94454.56
2022-12-03T03:12:40.743Z,94445.63
2022-12-03T03:13:39.019Z,94452.38
2022-12-03T03:14:35.722Z,94449.75
2022-12-03T03:15:32.379Z,94453.56
2022-12-03T03:16:29.017Z,94448.66
2022-12-03T03:17:25.877Z,94422.41
2022-12-03T03:18:22.824Z,94450.63
2022-12-03T03:19:19.495Z,94446.31
2022-12-03T03:20:16.289Z,94457.88
2022-12-03T03:21:13.180Z,94459.34
2022-12-03T03:22:11.415Z,94461.41
2022-12-03T03:23:10.915Z,94457.28
2022-12-03T03:24:07.833Z,94458.66
2022-12-03T03:25:07.251Z,94457.19
2022-12-03T03:26:08.697Z,94449.75
2022-12-03T03:27:05.662Z,94414.19
2022-12-03T03:28:02.602Z,94426.31
2022-12-03T03:29:00.345Z,94379.00
2022-12-03T03:29:58.385Z,94440.81
2022-12-03T03:30:55.496Z,94413.38
2022-12-03T03:31:52.257Z,94449.56
2022-12-03T03:32:49.097Z,94396.38
2022-12-03T03:33:48.468Z,94442.59
2022-12-03T03:34:45.217Z,94435.03
2022-12-03T03:35:44.641Z,94439.34
2022-12-03T03:36:41.886Z,94439.84
2022-12-03T03:37:39.267Z,94410.06
2022-12-03T03:38:37.060Z,94447.09
2022-12-03T03:39:33.747Z,94447.47
2022-12-03T03:40:30.639Z,94444.75
2022-12-03T03:41:28.877Z,94446.03
2022-12-03T03:42:25.616Z,94372.66
2022-12-03T03:43:23.947Z,94447.28
2022-12-03T03:44:20.639Z,94451.19
2022-12-03T03:45:18.055Z,94451.09
2022-12-03T03:46:15.495Z,94440.84
2022-12-03T03:47:13.084Z,94447.00
2022-12-03T03:48:10.434Z,94453.66
2022-12-03T03:49:07.475Z,94441.50
2022-12-03T03:50:05.241Z,94450.13
2022-12-03T03:51:04.383Z,94452.38
2022-12-03T03:52:01.079Z,94449.44
2022-12-03T03:53:00.226Z,94448.75
2022-12-03T03:53:57.115Z,94455.41
2022-12-03T03:54:53.983Z,94451.00
2022-12-03T03:55:51.448Z,94452.09
2022-12-03T03:56:48.159Z,94458.84
2022-12-03T03:57:44.978Z,94463.16
2022-12-03T03:58:41.553Z,94465.41
2022-12-03T03:59:38.475Z,94432.38
2022-12-03T04:00:36.340Z,94463.94
2022-12-03T04:01:33.279Z,94377.88
2022-12-03T04:02:29.949Z,94459.50
2022-12-03T04:03:27.492Z,94468.81
2022-12-03T04:04:29.186Z,94459.16
2022-12-03T04:05:26.306Z,94399.88
2022-12-03T04:06:22.955Z,94469.31
2022-12-03T04:07:19.731Z,94460.19
2022-12-03T04:08:16.803Z,94469.13
2022-12-03T04:09:13.641Z,94474.13
2022-12-03T04:10:29.414Z,94467.56
2022-12-03T04:11:44.614Z,94476.09
2022-12-03T04:12:56.116Z,94481.06
2022-12-03T04:13:52.789Z,94476.56
2022-12-03T04:14:49.348Z,94478.75
2022-12-03T04:15:45.976Z,94476.09
2022-12-03T04:16:42.607Z,94475.00
2022-12-03T04:17:39.194Z,94464.13
2022-12-03T04:18:44.983Z,94473.84
2022-12-03T04:19:41.554Z,94476.41
2022-12-03T04:20:38.656Z,94472.19
2022-12-03T04:21:53.847Z,94477.84
2022-12-03T04:22:50.529Z,94407.59
2022-12-03T04:23:47.222Z,94475.91
2022-12-03T04:24:43.950Z,94480.97
2022-12-03T04:25:59.016Z,94480.00
2022-12-03T04:27:14.403Z,94477.53
2022-12-03T04:28:29.477Z,94479.81
2022-12-03T04:29:26.061Z,94480.28
2022-12-03T04:30:22.819Z,94483.53
2022-12-03T04:31:38.206Z,94458.91
2022-12-03T04:32:53.036Z,94485.66
2022-12-03T04:34:08.189Z,94488.09
2022-12-03T04:35:23.722Z,94469.19
2022-12-03T04:36:20.391Z,94491.75
2022-12-03T04:37:17.206Z,94476.19
2022-12-03T04:38:16.226Z,94493.41
2022-12-03T04:39:12.803Z,94499.56
2022-12-03T04:40:29.546Z,94497.50
2022-12-03T04:41:26.176Z,94495.00
2022-12-03T04:42:22.835Z,94490.56
2022-12-03T04:43:19.477Z,94485.56
2022-12-03T04:44:36.063Z,94492.13
2022-12-03T04:45:32.804Z,94493.69
2022-12-03T04:46:29.539Z,94481.75
2022-12-03T04:47:26.205Z,94494.72
2022-12-03T04:48:22.957Z,94500.78
2022-12-03T04:49:19.568Z,94498.03
2022-12-03T04:50:16.253Z,94498.81
2022-12-03T04:51:12.927Z,94497.03
2022-12-03T04:52:11.394Z,94505.44
2022-12-03T04:53:08.092Z,94501.81
2022-12-03T04:54:04.735Z,94496.81
2022-12-03T04:55:01.276Z,94502.03
2022-12-03T04:55:57.905Z,94506.44
2022-12-03T04:56:54.522Z,94503.00
2022-12-03T04:57:51.130Z,94500.75
2022-12-03T04:58:47.746Z,94497.03
2022-12-03T04:59:44.333Z,94499.16
2022-12-03T05:00:40.958Z,94493.38
2022-12-03T05:01:37.647Z,94453.66
2022-12-03T05:02:34.478Z,94493.28
2022-12-03T05:03:31.102Z,94490.56
2022-12-03T05:04:27.786Z,94410.50
2022-12-03T05:05:24.395Z,94488.41
2022-12-03T05:06:21.063Z,94466.38
2022-12-03T05:07:17.649Z,94492.44
2022-12-03T05:08:14.450Z,94493.13
2022-12-03T05:09:11.959Z,94447.44
2022-12-03T05:10:09.822Z,94489.66
2022-12-03T05:11:06.474Z,94488.97
2022-12-03T05:12:03.977Z,94500.75
2022-12-03T05:13:00.587Z,94494.75
2022-12-03T05:13:57.246Z,94470.34
2022-12-03T05:14:54.446Z,94495.94
2022-12-03T05:15:51.156Z,94493.78
2022-12-03T05:16:47.869Z,94461.00
2022-12-03T05:17:44.524Z,94497.16
2022-12-03T05:18:41.079Z,94500.59
2022-12-03T05:19:56.010Z,94494.13
2022-12-03T05:20:53.687Z,94493.75
2022-12-03T05:21:50.502Z,94491.88
2022-12-03T05:22:47.213Z,94481.75
2022-12-03T05:23:44.230Z,94501.91
2022-12-03T05:24:40.897Z,94487.28
2022-12-03T05:25:37.892Z,94499.25
2022-12-03T05:26:34.560Z,94491.06
2022-12-03T05:27:31.213Z,94471.00
2022-12-03T05:28:28.002Z,94500.94
2022-12-03T05:29:24.570Z,94493.31
2022-12-03T05:30:21.172Z,94493.59
2022-12-03T05:31:17.956Z,94500.06
2022-12-03T05:32:15.109Z,94505.56
2022-12-03T05:33:11.750Z,94486.25
2022-12-03T05:34:08.416Z,94490.34
2022-12-03T05:35:05.444Z,94507.63
2022-12-03T05:36:02.070Z,94487.59
2022-12-03T05:36:58.669Z,94506.22
2022-12-03T05:37:55.307Z,94512.09
2022-12-03T05:38:51.925Z,94413.69
2022-12-03T05:39:48.543Z,94507.28
2022-12-03T05:40:45.181Z,94505.44
2022-12-03T05:42:04.854Z,94513.78
2022-12-03T05:43:01.810Z,94512.44
2022-12-03T05:43:58.438Z,94519.84
2022-12-03T05:44:55.369Z,94514.28
2022-12-03T05:45:52.372Z,94520.63
2022-12-03T05:46:49.010Z,94505.56
2022-12-03T05:47:45.588Z,94515.03
2022-12-03T05:48:42.127Z,94513.44
2022-12-03T05:49:38.684Z,94507.84
2022-12-03T05:50:37.075Z,94517.72
2022-12-03T05:51:33.669Z,94510.84
2022-12-03T05:52:30.317Z,94515.09
2022-12-03T05:53:26.883Z,94511.16
2022-12-03T05:54:23.490Z,94432.38
2022-12-03T05:55:20.420Z,94517.34
2022-12-03T05:56:16.952Z,94524.00
2022-12-03T05:57:13.513Z,94512.91
2022-12-03T05:58:10.214Z,94512.81
2022-12-03T05:59:06.812Z,94518.63
2022-12-03T06:00:09.213Z,94527.19
2022-12-03T06:01:06.002Z,94523.75
2022-12-03T06:02:02.840Z,94517.41
2022-12-03T06:03:00.041Z,94525.56
2022-12-03T06:03:56.885Z,94519.53
2022-12-03T06:04:53.819Z,94528.19
2022-12-03T06:05:51.060Z,94527.31
2022-12-03T06:06:47.707Z,94524.81
2022-12-03T06:07:44.367Z,94484.97
2022-12-03T06:08:41.010Z,94531.28
2022-12-03T06:09:37.900Z,94524.09
2022-12-03T06:10:34.519Z,94531.31
2022-12-03T06:11:34.170Z,94534.44
2022-12-03T06:12:30.860Z,94534.34
2022-12-03T06:13:27.432Z,94529.19
2022-12-03T06:14:24.069Z,94537.81
2022-12-03T06:15:20.818Z,94537.41
2022-12-03T06:16:17.504Z,94544.84
2022-12-03T06:17:14.192Z,94549.34
2022-12-03T06:18:10.978Z,94508.53
2022-12-03T06:19:07.666Z,94546.63
2022-12-03T06:20:05.346Z,94546.41
2022-12-03T06:21:01.912Z,94541.78
2022-12-03T06:21:58.527Z,94548.44
2022-12-03T06:22:55.154Z,94549.19
2022-12-03T06:23:51.730Z,94547.00
2022-12-03T06:24:48.347Z,94564.03
2022-12-03T06:25:44.893Z,94499.72
2022-12-03T06:26:41.503Z,94550.16
2022-12-03T06:27:38.497Z,94555.44
2022-12-03T06:28:35.088Z,94552.94
2022-12-03T06:29:31.747Z,94549.34
2022-12-03T06:30:28.359Z,94546.31
2022-12-03T06:31:24.991Z,94550.84
2022-12-03T06:32:21.686Z,94550.63
2022-12-03T06:33:18.329Z,94535.19
2022-12-03T06:34:14.929Z,94558.13
2022-12-03T06:35:12.678Z,94497.97
2022-12-03T06:36:09.316Z,94525.34
2022-12-03T06:37:06.274Z,94550.47
2022-12-03T06:38:03.019Z,94556.88
2022-12-03T06:38:59.619Z,94552.81
2022-12-03T06:39:56.204Z,94553.69
2022-12-03T06:40:52.801Z,94553.72
2022-12-03T06:41:49.465Z,94551.44
2022-12-03T06:42:46.053Z,94544.22
2022-12-03T06:43:42.662Z,94547.88
2022-12-03T06:44:39.241Z,94550.28
2022-12-03T06:45:35.866Z,94550.34
2022-12-03T06:46:32.528Z,94543.38
2022-12-03T06:47:29.211Z,94545.50
2022-12-03T06:48:25.810Z,94524.94
2022-12-03T06:49:22.567Z,94511.34
2022-12-03T06:50:19.137Z,94549.50
2022-12-03T06:51:15.738Z,94483.50
2022-12-03T06:52:12.308Z,94543.59
2022-12-03T06:53:08.911Z,94552.63
2022-12-03T06:54:05.721Z,94549.91
2022-12-03T06:55:02.319Z,94542.41
2022-12-03T06:55:58.936Z,94545.06
2022-12-03T06:56:55.563Z,94548.41
2022-12-03T06:57:52.176Z,94550.75
2022-12-03T06:58:48.755Z,94554.31
2022-12-03T06:59:45.395Z,94551.78
2022-12-03T07:00:42.038Z,94549.81
2022-12-03T07:01:38.670Z,94555.28
2022-12-03T07:02:35.578Z,94499.56
2022-12-03T07:03:32.227Z,94549.91
2022-12-03T07:04:28.846Z,94522.38
2022-12-03T07:05:25.433Z,94552.91
2022-12-03T07:06:22.080Z,94556.19
2022-12-03T07:07:18.741Z,94553.63
2022-12-03T07:08:15.353Z,94555.50
2022-12-03T07:09:11.964Z,94554.13
2022-12-03T07:10:08.983Z,94553.84
2022-12-03T07:11:05.721Z,94547.41
2022-12-03T07:12:02.350Z,94562.91
2022-12-03T07:12:58.970Z,94555.63
2022-12-03T07:13:58.849Z,94545.25
2022-12-03T07:14:58.013Z,94556.66
2022-12-03T07:15:54.815Z,94565.06
2022-12-03T07:16:51.513Z,94562.28
2022-12-03T07:17:48.120Z,94554.06
2022-12-03T07:18:45.039Z,94552.69
2022-12-03T07:19:41.757Z,94560.63
2022-12-03T07:20:38.527Z,94522.78
2022-12-03T07:21:35.241Z,94539.47
2022-12-03T07:22:31.779Z,94563.00
2022-12-03T07:23:28.343Z,94558.00
2022-12-03T07:24:24.969Z,94558.78
2022-12-03T07:25:23.627Z,94561.19
2022-12-03T07:26:20.792Z,94569.34
2022-12-03T07:27:17.428Z,94570.94
2022-12-03T07:28:14.118Z,94567.09
2022-12-03T07:29:10.771Z,94570.53
2022-12-03T07:30:08.141Z,94571.44
2022-12-03T07:31:05.572Z,94564.00
2022-12-03T07:32:02.216Z,94558.69
2022-12-03T07:32:58.883Z,94511.13
2022-12-03T07:33:55.518Z,94522.00
2022-12-03T07:34:52.486Z,94565.84
2022-12-03T07:35:49.373Z,94557.69
2022-12-03T07:36:45.960Z,94568.09
2022-12-03T07:37:42.571Z,94571.13
2022-12-03T07:38:39.164Z,94555.53
2022-12-03T07:39:35.806Z,94567.41
2022-12-03T07:40:32.449Z,94554.19
2022-12-03T07:41:29.084Z,94579.50
2022-12-03T07:42:25.684Z,94563.31
2022-12-03T07:43:22.451Z,94542.13
2022-12-03T07:44:19.247Z,94563.28
2022-12-03T07:45:15.910Z,94581.25
2022-12-03T07:46:12.556Z,94572.53
2022-12-03T07:47:09.247Z,94572.72
2022-12-03T07:48:06.214Z,94560.13
2022-12-03T07:49:03.631Z,94582.59
2022-12-03T07:50:00.197Z,94580.69
2022-12-03T07:50:56.836Z,94583.38
2022-12-03T07:51:54.483Z,94578.88
2022-12-03T07:52:51.204Z,94578.69
2022-12-03T07:53:47.828Z,94573.69
2022-12-03T07:54:44.468Z,94580.91
2022-12-03T07:55:41.064Z,94581.88
2022-12-03T07:56:37.651Z,94578.13
2022-12-03T07:57:34.266Z,94580.50
2022-12-03T07:58:31.620Z,94583.75
2022-12-03T07:59:29.031Z,94583.38
2022-12-03T08:00:25.707Z,94582.50
2022-12-03T08:01:22.525Z,94583.88
2022-12-03T08:02:21.666Z,94583.66
2022-12-03T08:03:18.570Z,94585.63
2022-12-03T08:04:18.302Z,94583.28
2022-12-03T08:05:15.055Z,94581.94
2022-12-03T08:06:11.757Z,94581.53
2022-12-03T08:07:08.379Z,94584.25
2022-12-03T08:08:05.195Z,94583.09
2022-12-03T08:09:01.887Z,94582.59
2022-12-03T08:09:58.611Z,94580.88
2022-12-03T08:10:55.385Z,94586.31
2022-12-03T08:11:52.281Z,94556.25
2022-12-03T08:12:49.041Z,94581.16
2022-12-03T08:13:45.620Z,94531.31
2022-12-03T08:14:42.654Z,94585.13
2022-12-03T08:15:39.827Z,94589.19
2022-12-03T08:16:39.279Z,94584.97
2022-12-03T08:17:36.648Z,94548.66
2022-12-03T08:18:33.286Z,94591.31
2022-12-03T08:19:29.920Z,94592.50
2022-12-03T08:20:34.636Z,94565.00
2022-12-03T08:21:35.190Z,94593.13
2022-12-03T08:22:31.887Z,94590.34
2022-12-03T08:23:28.610Z,94594.28
2022-12-03T08:24:25.231Z,94591.09
2022-12-03T08:25:28.711Z,94587.75
2022-12-03T08:26:28.165Z,94581.16
2022-12-03T08:27:24.952Z,94595.44
2022-12-03T08:28:25.861Z,94594.94
2022-12-03T08:29:22.603Z,94596.25
2022-12-03T08:30:20.675Z,94600.38
2022-12-03T08:31:20.087Z,94599.44
2022-12-03T08:32:16.842Z,94549.13
2022-12-03T08:33:25.480Z,94601.44
2022-12-03T08:34:24.437Z,94506.97
2022-12-03T08:35:31.016Z,94605.25
2022-12-03T08:36:33.419Z,94604.25
2022-12-03T08:37:30.144Z,94551.94
2022-12-03T08:38:29.584Z,94607.31
2022-12-03T08:39:41.468Z,94608.09
2022-12-03T08:40:43.404Z,94606.31
2022-12-03T08:41:58.610Z,94611.84
2022-12-03T08:42:55.195Z,94610.53
2022-12-03T08:43:51.751Z,94614.25
2022-12-03T08:44:48.408Z,94616.34
2022-12-03T08:45:45.836Z,94611.94
2022-12-03T08:46:42.491Z,94612.13
2022-12-03T08:47:40.366Z,94570.28
2022-12-03T08:48:40.678Z,94599.28
2022-12-03T08:49:39.914Z,94611.50
2022-12-03T08:50:40.965Z,94550.38
2022-12-03T08:51:37.552Z,94620.06
2022-12-03T08:52:34.890Z,94579.78
2022-12-03T08:53:34.564Z,94615.22
2022-12-03T08:54:31.301Z,94607.09
2022-12-03T08:55:45.581Z,94611.84
2022-12-03T08:56:42.191Z,94622.25
2022-12-03T08:57:41.366Z,94602.94
2022-12-03T08:58:40.513Z,94614.56
2022-12-03T08:59:40.261Z,94613.78
2022-12-03T09:00:39.279Z,94612.81
2022-12-03T09:01:43.290Z,94620.66
2022-12-03T09:02:46.109Z,94615.41
2022-12-03T09:03:54.787Z,94610.34
2022-12-03T09:04:53.273Z,94614.16
2022-12-03T09:05:50.418Z,94609.31
2022-12-03T09:06:47.104Z,94613.63
2022-12-03T09:07:43.819Z,94615.50
2022-12-03T09:08:40.488Z,94612.63
2022-12-03T09:09:37.169Z,94612.84
2022-12-03T09:10:33.761Z,94608.63
2022-12-03T09:11:30.409Z,94617.59
2022-12-03T09:12:27.055Z,94611.97
2022-12-03T09:13:23.732Z,94600.78
2022-12-03T09:14:22.618Z,94584.38
2022-12-03T09:15:19.233Z,94603.69
2022-12-03T09:16:15.956Z,94605.53
2022-12-03T09:17:12.687Z,94610.78
2022-12-03T09:18:09.458Z,94607.81
2022-12-03T09:19:23.445Z,94608.72
2022-12-03T09:20:20.298Z,94562.41
2022-12-03T09:21:16.868Z,94603.59
2022-12-03T09:22:15.244Z,94602.38
2022-12-03T09:23:12.183Z,94597.13
2022-12-03T09:24:08.923Z,94613.22
2022-12-03T09:25:06.115Z,94618.53
2022-12-03T09:26:02.689Z,94610.81
2022-12-03T09:26:59.486Z,94608.75
2022-12-03T09:27:56.150Z,94583.94
2022-12-03T09:28:52.799Z,94590.91
2022-12-03T09:29:50.499Z,94605.81
2022-12-03T09:30:47.071Z,94602.19
2022-12-03T09:31:43.666Z,94607.78
2022-12-03T09:32:40.346Z,94603.66
2022-12-03T09:33:36.951Z,94603.75
2022-12-03T09:34:34.785Z,94595.59
2022-12-03T09:35:31.363Z,94606.41
2022-12-03T09:36:28.180Z,94598.84
2022-12-03T09:37:24.809Z,94606.09
2022-12-03T09:38:21.354Z,94604.03
2022-12-03T09:39:17.974Z,94603.34
2022-12-03T09:40:15.255Z,94593.06
2022-12-03T09:41:11.991Z,94608.06
2022-12-03T09:42:09.974Z,94556.00
2022-12-03T09:43:06.761Z,94592.75
2022-12-03T09:44:05.110Z,94595.47
2022-12-03T09:45:05.430Z,94600.59
2022-12-03T09:46:03.473Z,94608.72
2022-12-03T09:47:01.500Z,94598.63
2022-12-03T09:47:58.847Z,94602.06
2022-12-03T09:48:55.614Z,94596.56
2022-12-03T09:49:52.990Z,94600.81
2022-12-03T09:50:50.664Z,94595.41
2022-12-03T09:51:47.419Z,94592.56
2022-12-03T09:52:45.245Z,94593.72
2022-12-03T09:53:42.183Z,94601.28
2022-12-03T09:54:42.826Z,94594.53
2022-12-03T09:55:45.287Z,94597.56
2022-12-03T09:56:41.951Z,94592.88
2022-12-03T09:57:38.663Z,94565.22
2022-12-03T09:58:35.292Z,94591.38
2022-12-03T09:59:33.499Z,94544.03
2022-12-03T10:00:30.585Z,94591.66
2022-12-03T10:01:30.331Z,94584.34
2022-12-03T10:02:30.400Z,94587.41
2022-12-03T10:03:30.708Z,94580.75
2022-12-03T10:04:28.830Z,94578.19
2022-12-03T10:05:26.035Z,94555.06
2022-12-03T10:06:23.892Z,94580.84
2022-12-03T10:07:21.061Z,94578.31
2022-12-03T10:08:21.818Z,94571.81
2022-12-03T10:09:28.241Z,94567.69
2022-12-03T10:10:25.242Z,94579.59
2022-12-03T10:11:24.699Z,94577.03
2022-12-03T10:12:24.593Z,94564.28
2022-12-03T10:13:28.543Z,94573.97
2022-12-03T10:14:25.591Z,94568.41
2022-12-03T10:15:23.692Z,94573.06
2022-12-03T10:16:21.300Z,94566.78
2022-12-03T10:17:18.270Z,94574.13
2022-12-03T10:18:30.511Z,94578.00
2022-12-03T10:19:32.894Z,94578.38
2022-12-03T10:20:30.407Z,94579.78
2022-12-03T10:21:35.062Z,94575.72
2022-12-03T10:22:37.023Z,94571.47
2022-12-03T10:23:33.744Z,94574.47
2022-12-03T10:24:34.268Z,94568.38
2022-12-03T10:25:30.900Z,94566.97
2022-12-03T10:26:40.578Z,94564.75
2022-12-03T10:27:37.318Z,94566.75
2022-12-03T10:28:39.522Z,94507.38
2022-12-03T10:29:36.297Z,94558.66
2022-12-03T10:30:33.077Z,94559.88
2022-12-03T10:31:35.773Z,94545.88
2022-12-03T10:32:41.710Z,94531.47
2022-12-03T10:33:44.829Z,94559.97
2022-12-03T10:34:42.404Z,94544.81
2022-12-03T10:35:41.601Z,94537.22
2022-12-03T10:36:38.228Z,94492.16
2022-12-03T10:37:34.884Z,94549.72
2022-12-03T10:38:31.493Z,94547.84
2022-12-03T10:39:28.070Z,94544.44
2022-12-03T10:40:35.911Z,94563.53
2022-12-03T10:41:32.566Z,94522.19
2022-12-03T10:42:31.979Z,94509.84
2022-12-03T10:43:28.560Z,94546.56
2022-12-03T10:44:30.589Z,94546.00
2022-12-03T10:45:27.267Z,94548.03
2022-12-03T10:46:23.950Z,94542.94
2022-12-03T10:47:22.620Z,94550.22
2022-12-03T10:48:22.067Z,94548.16
2022-12-03T10:49:19.522Z,94559.69
2022-12-03T10:50:19.427Z,94550.41
2022-12-03T10:51:21.243Z,94550.28
2022-12-03T10:52:26.051Z,94542.19
2022-12-03T10:53:27.219Z,94548.00
2022-12-03T10:54:26.282Z,94541.00
2022-12-03T10:55:23.210Z,94521.31
2022-12-03T10:56:29.383Z,94541.41
2022-12-03T10:57:26.447Z,94543.72
2022-12-03T10:58:25.845Z,94541.00
2022-12-03T10:59:25.038Z,94534.13
2022-12-03T11:00:22.821Z,94530.28
2022-12-03T11:01:22.999Z,94527.75
2022-12-03T11:02:22.898Z,94535.94
2022-12-03T11:03:22.613Z,94520.00
2022-12-03T11:04:37.553Z,94515.75
2022-12-03T11:05:34.202Z,94540.16
2022-12-03T11:06:32.946Z,94496.88
2022-12-03T11:07:30.998Z,94530.91
2022-12-03T11:08:34.641Z,94540.88
2022-12-03T11:09:33.504Z,94538.41
2022-12-03T11:10:30.165Z,94536.13
2022-12-03T11:11:29.049Z,94535.66
2022-12-03T11:12:34.650Z,94537.47
2022-12-03T11:13:34.021Z,94539.41
2022-12-03T11:14:49.217Z,94531.16
2022-12-03T11:15:46.153Z,94531.56
2022-12-03T11:17:03.055Z,94533.69
2022-12-03T11:18:00.734Z,94527.69
2022-12-03T11:18:58.529Z,94520.81
2022-12-03T11:19:55.178Z,94534.66
2022-12-03T11:21:09.002Z,94532.47
2022-12-03T11:22:05.691Z,94534.13
2022-12-03T11:23:02.321Z,94528.34
2022-12-03T11:23:58.895Z,94542.88
2022-12-03T11:25:24.755Z,94528.81
2022-12-03T11:26:44.581Z,94525.22